createdAt,value
2022-07-30T00:01:43.524Z,101210.09
2022-07-30T00:04:46.501Z,101211.19
2022-07-30T00:07:48.506Z,101205.06
2022-07-30T00:10:51.457Z,101210.56
2022-07-30T00:13:53.555Z,101203.19
2022-07-30T00:16:55.771Z,101198.75
2022-07-30T00:19:57.836Z,101196.00
2022-07-30T00:23:04.502Z,101193.25
2022-07-30T00:26:06.598Z,101174.00
2022-07-30T00:29:09.492Z,101181.41
2022-07-30T00:32:11.516Z,101176.19
2022-07-30T00:35:13.722Z,101173.16
2022-07-30T00:38:15.813Z,101161.34
2022-07-30T00:41:18.045Z,101160.50
2022-07-30T00:44:20.102Z,101167.44
2022-07-30T00:47:22.185Z,101164.94
2022-07-30T00:50:24.382Z,101160.25
2022-07-30T00:53:26.495Z,101164.69
2022-07-30T00:56:28.842Z,101161.09
2022-07-30T00:59:31.754Z,101164.09
2022-07-30T01:02:34.408Z,101160.75
2022-07-30T01:05:36.610Z,101160.75
2022-07-30T01:08:38.661Z,101157.66
2022-07-30T01:11:42.557Z,101152.16
2022-07-30T01:14:44.744Z,101157.91
2022-07-30T01:17:52.754Z,101160.91
2022-07-30T01:21:18.688Z,101161.25
2022-07-30T01:24:38.826Z,101169.50
2022-07-30T01:27:45.742Z,101173.09
2022-07-30T01:30:50.002Z,101175.22
2022-07-30T01:33:52.458Z,101174.75
2022-07-30T01:36:57.941Z,101176.66
2022-07-30T01:40:00.784Z,101177.50
2022-07-30T01:43:03.840Z,101181.06
2022-07-30T01:46:09.068Z,101172.81
2022-07-30T01:49:13.832Z,101174.75
2022-07-30T01:52:18.196Z,101162.31
2022-07-30T01:55:32.516Z,101164.00
2022-07-30T01:58:37.601Z,101156.81
2022-07-30T02:01:54.682Z,101157.66
2022-07-30T02:04:57.788Z,101150.97
2022-07-30T02:08:02.173Z,101169.72
2022-07-30T02:11:13.491Z,101177.16
2022-07-30T02:14:22.809Z,101177.97
2022-07-30T02:17:34.773Z,101182.63
2022-07-30T02:20:49.537Z,101175.22
2022-07-30T02:23:55.982Z,101169.72
2022-07-30T02:27:04.408Z,101164.50
2022-07-30T02:30:08.083Z,101163.41
2022-07-30T02:33:12.884Z,101165.53
2022-07-30T02:38:02.656Z,101159.69
2022-07-30T02:41:09.263Z,101164.22
2022-07-30T02:44:17.653Z,101166.97
2022-07-30T02:47:23.470Z,101164.22
2022-07-30T02:50:46.625Z,101165.06
2022-07-30T02:53:52.049Z,101161.97
2022-07-30T02:56:55.893Z,101156.25
2022-07-30T02:59:59.445Z,101159.22
2022-07-30T03:03:05.966Z,101149.03
2022-07-30T03:06:10.186Z,101151.22
2022-07-30T03:09:13.067Z,101134.38
2022-07-30T03:12:20.047Z,101155.63
2022-07-30T03:15:22.265Z,101152.88
2022-07-30T03:18:25.428Z,101159.47
2022-07-30T03:21:29.032Z,101159.47
2022-07-30T03:24:32.508Z,101151.78
2022-07-30T03:27:38.277Z,101152.66
2022-07-30T03:30:41.378Z,101159.00
2022-07-30T03:33:43.607Z,101165.06
2022-07-30T03:36:47.322Z,101164.00
2022-07-30T03:39:49.588Z,101164.84
2022-07-30T03:42:52.791Z,101159.91
2022-07-30T03:45:58.684Z,101163.75
2022-07-30T03:49:06.141Z,101138.66
2022-07-30T03:52:09.667Z,101154.06
2022-07-30T03:55:12.869Z,101161.81
2022-07-30T03:58:21.262Z,101148.34
2022-07-30T04:01:27.011Z,101147.34
2022-07-30T04:04:33.917Z,101157.03
2022-07-30T04:07:41.367Z,101155.94
2022-07-30T04:10:49.229Z,101156.78
2022-07-30T04:14:27.037Z,101147.59
2022-07-30T04:17:42.144Z,101159.28
2022-07-30T04:20:48.874Z,101151.88
2022-07-30T04:24:04.594Z,101159.91
2022-07-30T04:27:09.600Z,101153.03
2022-07-30T04:30:12.263Z,101162.38
2022-07-30T04:33:16.107Z,101152.22
2022-07-30T04:36:43.325Z,101161.28
2022-07-30T04:39:45.848Z,101152.81
2022-07-30T04:42:47.926Z,101166.56
2022-07-30T04:45:49.934Z,101153.38
2022-07-30T04:48:52.485Z,101156.47
2022-07-30T04:51:56.639Z,101153.50
2022-07-30T04:55:03.771Z,101154.59
2022-07-30T04:58:07.373Z,101153.25
2022-07-30T05:01:12.379Z,101160.44
2022-07-30T05:04:16.475Z,101167.13
2022-07-30T05:07:22.553Z,101161.34
2022-07-30T05:10:25.916Z,101158.88
2022-07-30T05:13:34.752Z,101162.44
2022-07-30T05:16:41.277Z,101160.78
2022-07-30T05:19:43.418Z,101154.94
2022-07-30T05:22:50.888Z,101156.81
2022-07-30T05:25:55.233Z,101158.25
2022-07-30T05:29:06.982Z,101155.50
2022-07-30T05:32:32.601Z,101165.69
2022-07-30T05:35:35.527Z,101164.03
2022-07-30T05:38:37.930Z,101158.19
2022-07-30T05:42:00.015Z,101161.00
2022-07-30T05:45:15.491Z,101160.78
2022-07-30T05:48:17.660Z,101161.97
2022-07-30T05:51:20.948Z,101167.47
2022-07-30T05:54:24.722Z,101168.03
2022-07-30T05:57:46.118Z,101172.81
2022-07-30T06:00:48.434Z,101168.63
2022-07-30T06:03:50.752Z,101176.78
2022-07-30T06:07:17.672Z,101178.94
2022-07-30T06:10:20.058Z,101159.34
2022-07-30T06:13:22.805Z,101153.50
2022-07-30T06:16:24.954Z,101173.31
2022-07-30T06:19:27.107Z,101170.06
2022-07-30T06:22:29.182Z,101178.13
2022-07-30T06:25:33.589Z,101176.00
2022-07-30T06:28:37.991Z,101177.31
2022-07-30T06:31:45.987Z,101164.44
2022-07-30T06:34:48.049Z,101162.88
2022-07-30T06:38:05.958Z,101157.13
2022-07-30T06:41:18.251Z,101157.47
2022-07-30T06:44:27.310Z,101157.22
2022-07-30T06:47:34.605Z,101160.63
2022-07-30T06:50:37.654Z,101158.56
2022-07-30T06:53:42.479Z,101149.78
2022-07-30T06:56:47.870Z,101152.94
2022-07-30T06:59:56.250Z,101147.22
2022-07-30T07:03:11.805Z,101141.19
2022-07-30T07:06:14.324Z,101150.69
2022-07-30T07:09:17.850Z,101151.78
2022-07-30T07:12:26.001Z,101148.75
2022-07-30T07:15:37.233Z,101120.06
2022-07-30T07:18:45.378Z,101144.03
2022-07-30T07:21:50.084Z,101150.22
2022-07-30T07:24:52.263Z,101146.44
2022-07-30T07:28:10.897Z,101148.75
2022-07-30T07:32:02.484Z,101154.09
2022-07-30T07:34:43.436Z,101149.47
2022-07-30T07:37:45.902Z,101138.44
2022-07-30T07:40:55.005Z,101152.94
2022-07-30T07:43:57.112Z,101149.41
2022-07-30T07:47:07.548Z,101135.91
2022-07-30T07:50:19.653Z,101141.25
2022-07-30T07:53:22.063Z,101130.38
2022-07-30T07:56:24.506Z,101135.94
2022-07-30T07:59:35.839Z,101138.22
2022-07-30T08:02:41.650Z,101139.31
2022-07-30T08:06:01.083Z,101137.06
2022-07-30T08:09:24.727Z,101135.06
2022-07-30T08:12:59.180Z,101133.47
2022-07-30T08:16:30.388Z,101142.09
2022-07-30T08:19:45.096Z,101115.78
2022-07-30T08:25:41.202Z,101117.59
2022-07-30T08:28:43.394Z,101095.63
2022-07-30T08:31:45.858Z,101107.28
2022-07-30T08:34:48.015Z,101104.31
2022-07-30T08:37:50.367Z,101107.38
2022-07-30T08:40:57.141Z,101093.91
2022-07-30T08:44:02.335Z,101093.13
2022-07-30T08:47:07.783Z,101091.28
2022-07-30T08:50:30.200Z,101085.56
2022-07-30T08:54:03.736Z,101080.59
2022-07-30T08:57:08.155Z,101074.84
2022-07-30T09:00:12.530Z,101077.63
2022-07-30T09:03:14.570Z,101073.00
2022-07-30T09:06:16.605Z,101069.72
2022-07-30T09:09:19.496Z,101072.63
2022-07-30T09:12:41.072Z,101070.50
2022-07-30T09:15:44.318Z,101067.47
2022-07-30T09:18:46.889Z,101071.84
2022-07-30T09:22:00.523Z,101070.19
2022-07-30T09:25:37.970Z,101061.44
2022-07-30T09:29:34.935Z,101050.19
2022-07-30T09:32:57.876Z,101058.00
2022-07-30T09:36:18.976Z,101058.63
2022-07-30T09:39:56.597Z,101049.84
2022-07-30T09:43:15.304Z,101059.00
2022-07-30T09:46:18.748Z,101049.38
2022-07-30T09:49:23.474Z,101049.91
2022-07-30T09:52:29.655Z,101057.94
2022-07-30T09:55:41.085Z,101055.97
2022-07-30T09:58:45.439Z,101062.59
2022-07-30T10:01:54.885Z,101068.13
2022-07-30T10:05:33.962Z,101054.00
2022-07-30T10:08:59.102Z,101056.47
2022-07-30T10:12:04.953Z,101047.28
2022-07-30T10:15:15.676Z,101042.31
2022-07-30T10:18:18.483Z,101036.53
2022-07-30T10:21:58.087Z,101045.94
2022-07-30T10:25:23.281Z,101040.19
2022-07-30T10:28:50.037Z,101034.16
2022-07-30T10:31:54.527Z,101031.97
2022-07-30T10:34:57.281Z,101030.03
2022-07-30T10:38:01.189Z,101026.78
2022-07-30T10:41:15.960Z,101022.97
2022-07-30T10:44:43.144Z,101008.31
2022-07-30T10:47:49.204Z,101002.22
2022-07-30T10:50:57.433Z,101003.63
2022-07-30T10:54:00.412Z,101001.97
2022-07-30T10:57:23.060Z,100980.69
2022-07-30T11:00:52.968Z,100973.56
2022-07-30T11:04:25.864Z,100959.47
2022-07-30T11:07:31.882Z,100957.22
2022-07-30T11:10:40.340Z,100956.13
2022-07-30T11:13:59.993Z,100950.00
2022-07-30T11:17:03.227Z,100951.94
2022-07-30T11:20:11.859Z,100946.16
2022-07-30T11:23:20.817Z,100938.38
2022-07-30T11:26:46.661Z,100938.38
2022-07-30T11:29:50.967Z,100932.25
2022-07-30T11:32:56.290Z,100941.38
2022-07-30T11:36:11.720Z,100925.84
2022-07-30T11:39:14.265Z,100913.97
2022-07-30T11:42:31.628Z,100918.44
2022-07-30T11:45:34.450Z,100911.47
2022-07-30T11:48:42.177Z,100916.47
2022-07-30T11:51:47.665Z,100907.03
2022-07-30T11:54:56.265Z,100913.69
2022-07-30T11:58:02.468Z,100906.47
2022-07-30T12:01:18.325Z,100912.28
2022-07-30T12:04:21.910Z,100892.06
2022-07-30T12:07:24.629Z,100897.91
2022-07-30T12:10:27.473Z,100893.72
2022-07-30T12:13:44.095Z,100891.81
2022-07-30T12:16:52.961Z,100882.69
2022-07-30T12:19:55.208Z,100883.84
2022-07-30T12:22:58.106Z,100870.28
2022-07-30T12:26:01.233Z,100879.13
2022-07-30T12:29:11.889Z,100869.19
2022-07-30T12:32:14.064Z,100872.50
2022-07-30T12:35:16.138Z,100876.13
2022-07-30T12:38:25.901Z,100875.03
2022-07-30T12:41:49.396Z,100870.31
2022-07-30T12:44:51.394Z,100863.41
2022-07-30T12:47:53.960Z,100860.06
2022-07-30T12:51:06.936Z,100863.69
2022-07-30T12:54:19.537Z,100862.63
2022-07-30T12:57:22.323Z,100848.81
2022-07-30T13:00:27.036Z,100853.75
2022-07-30T13:03:39.257Z,100837.75
2022-07-30T13:06:43.652Z,100821.44
2022-07-30T13:09:45.713Z,100826.72
2022-07-30T13:12:48.806Z,100829.47
2022-07-30T13:16:01.402Z,100814.31
2022-07-30T13:19:05.407Z,100797.72
2022-07-30T13:22:07.528Z,100806.63
2022-07-30T13:25:10.759Z,100811.59
2022-07-30T13:28:12.827Z,100794.19
2022-07-30T13:31:15.064Z,100798.59
2022-07-30T13:34:17.291Z,100788.94
2022-07-30T13:37:19.532Z,100788.66
2022-07-30T13:40:25.283Z,100787.28
2022-07-30T13:43:27.939Z,100791.41
2022-07-30T13:46:30.036Z,100801.38
2022-07-30T13:49:32.749Z,100786.19
2022-07-30T13:52:35.265Z,100790.63
2022-07-30T13:55:38.776Z,100789.78
2022-07-30T13:58:41.213Z,100788.97
2022-07-30T14:01:43.282Z,100771.56
2022-07-30T14:04:45.452Z,100772.38
2022-07-30T14:07:47.535Z,100773.50
2022-07-30T14:10:51.236Z,100771.56
2022-07-30T14:13:53.302Z,100770.47
2022-07-30T14:16:55.510Z,100771.25
2022-07-30T14:19:57.849Z,100763.56
2022-07-30T14:22:59.923Z,100762.44
2022-07-30T14:26:01.977Z,100755.53
2022-07-30T14:29:05.518Z,100766.28
2022-07-30T14:32:07.749Z,100760.16
2022-07-30T14:35:10.621Z,100758.50
2022-07-30T14:38:12.873Z,100760.44
2022-07-30T14:41:14.961Z,100761.53
2022-07-30T14:44:16.990Z,100747.47
2022-07-30T14:47:19.281Z,100750.19
2022-07-30T14:50:21.405Z,100754.06
2022-07-30T14:53:23.440Z,100748.25
2022-07-30T14:56:25.527Z,100743.84
2022-07-30T14:59:28.442Z,100737.50
2022-07-30T15:02:30.561Z,100731.69
2022-07-30T15:05:32.692Z,100737.19
2022-07-30T15:08:34.779Z,100729.19
2022-07-30T15:12:04.306Z,100725.31
2022-07-30T15:15:00.222Z,100732.78
2022-07-30T15:18:04.624Z,100730.03
2022-07-30T15:21:06.756Z,100735.25
2022-07-30T15:24:08.861Z,100737.44
2022-07-30T15:27:11.000Z,100738.84
2022-07-30T15:30:13.136Z,100736.06
2022-07-30T15:33:15.417Z,100728.06
2022-07-30T15:36:17.732Z,100733.81
2022-07-30T15:39:19.787Z,100727.47
2022-07-30T15:42:22.789Z,100724.97
2022-07-30T15:45:25.174Z,100719.97
2022-07-30T15:48:27.884Z,100711.97
2022-07-30T15:51:32.250Z,100723.25
2022-07-30T15:54:34.879Z,100721.84
2022-07-30T15:57:37.230Z,100709.16
2022-07-30T16:00:39.455Z,100708.06
2022-07-30T16:03:42.675Z,100706.41
2022-07-30T16:06:44.906Z,100712.47
2022-07-30T16:09:47.027Z,100699.75
2022-07-30T16:12:49.072Z,100706.06
2022-07-30T16:15:51.151Z,100701.09
2022-07-30T16:18:53.240Z,100705.78
2022-07-30T16:21:55.792Z,100701.38
2022-07-30T16:24:57.869Z,100702.44
2022-07-30T16:28:00.096Z,100707.97
2022-07-30T16:31:02.718Z,100712.34
2022-07-30T16:34:05.819Z,100720.91
2022-07-30T16:37:07.918Z,100724.47
2022-07-30T16:40:10.555Z,100722.53
2022-07-30T16:43:12.967Z,100720.31
2022-07-30T16:46:18.881Z,100715.06
2022-07-30T16:49:25.069Z,100715.59
2022-07-30T16:52:35.439Z,100717.19
2022-07-30T16:55:37.620Z,100727.72
2022-07-30T16:58:39.689Z,100710.19
2022-07-30T17:01:57.367Z,100717.38
2022-07-30T17:04:59.544Z,100727.88
2022-07-30T17:08:01.772Z,100728.38
2022-07-30T17:11:09.386Z,100733.91
2022-07-30T17:14:12.471Z,100727.25
2022-07-30T17:17:14.721Z,100733.06
2022-07-30T17:20:35.498Z,100724.50
2022-07-30T17:23:37.593Z,100725.00
2022-07-30T17:26:43.173Z,100716.97
2022-07-30T17:29:50.167Z,100724.13
2022-07-30T17:32:53.133Z,100724.41
2022-07-30T17:35:58.067Z,100727.97
2022-07-30T17:39:00.096Z,100724.91
2022-07-30T17:42:02.745Z,100727.38
2022-07-30T17:45:06.892Z,100725.97
2022-07-30T17:48:09.224Z,100723.47
2022-07-30T17:51:11.305Z,100734.50
2022-07-30T17:54:27.411Z,100727.28
2022-07-30T17:57:32.175Z,100733.34
2022-07-30T18:00:35.475Z,100730.84
2022-07-30T18:03:38.445Z,100727.53
2022-07-30T18:06:47.322Z,100728.56
2022-07-30T18:09:49.438Z,100735.25
2022-07-30T18:12:54.763Z,100744.84
2022-07-30T18:16:01.717Z,100739.34
2022-07-30T18:19:03.672Z,100730.47
2022-07-30T18:22:06.178Z,100739.00
2022-07-30T18:25:18.927Z,100731.84
2022-07-30T18:28:22.040Z,100720.72
2022-07-30T18:31:24.156Z,100737.88
2022-07-30T18:34:26.239Z,100745.53
2022-07-30T18:37:41.321Z,100750.50
2022-07-30T18:40:45.069Z,100745.75
2022-07-30T18:43:49.811Z,100747.13
2022-07-30T18:46:51.740Z,100752.88
2022-07-30T18:49:55.478Z,100742.69
2022-07-30T18:52:57.692Z,100746.53
2022-07-30T18:56:00.413Z,100743.78
2022-07-30T18:59:03.946Z,100752.06
2022-07-30T19:02:08.448Z,100746.81
2022-07-30T19:05:11.597Z,100735.50
2022-07-30T19:08:13.889Z,100753.41
2022-07-30T19:11:16.452Z,100746.25
2022-07-30T19:14:18.659Z,100753.94
2022-07-30T19:17:21.539Z,100743.16
2022-07-30T19:20:44.132Z,100749.50
2022-07-30T19:23:48.751Z,100740.13
2022-07-30T19:26:51.852Z,100737.34
2022-07-30T19:29:53.925Z,100740.63
2022-07-30T19:33:04.225Z,100746.97
2022-07-30T19:36:06.465Z,100745.81
2022-07-30T19:39:11.030Z,100751.31
2022-07-30T19:42:18.302Z,100748.84
2022-07-30T19:45:23.494Z,100749.41
2022-07-30T19:48:29.003Z,100751.09
2022-07-30T19:52:22.483Z,100748.88
2022-07-30T19:54:55.862Z,100752.72
2022-07-30T19:57:58.137Z,100734.81
2022-07-30T20:01:00.266Z,100745.56
2022-07-30T20:04:03.069Z,100749.41
2022-07-30T20:07:05.309Z,100739.81
2022-07-30T20:10:10.737Z,100750.25
2022-07-30T20:13:15.256Z,100751.09
2022-07-30T20:16:18.247Z,100753.56
2022-07-30T20:19:22.174Z,100749.66
2022-07-30T20:22:24.413Z,100756.00
2022-07-30T20:25:26.578Z,100757.94
2022-07-30T20:28:28.677Z,100752.69
2022-07-30T20:31:30.770Z,100751.53
2022-07-30T20:34:35.722Z,100738.88
2022-07-30T20:37:40.209Z,100748.78
2022-07-30T20:40:57.203Z,100742.13
2022-07-30T20:44:02.082Z,100745.16
2022-07-30T20:47:08.042Z,100750.16
2022-07-30T20:50:14.420Z,100744.38
2022-07-30T20:53:16.673Z,100742.72
2022-07-30T20:56:19.434Z,100744.88
2022-07-30T20:59:23.802Z,100732.22
2022-07-30T21:02:26.703Z,100723.66
2022-07-30T21:05:30.594Z,100724.78
2022-07-30T21:08:33.554Z,100718.94
2022-07-30T21:11:35.908Z,100729.19
2022-07-30T21:14:37.966Z,100735.56
2022-07-30T21:17:40.975Z,100738.03
2022-07-30T21:20:46.002Z,100718.09
2022-07-30T21:23:49.619Z,100739.69
2022-07-30T21:26:52.389Z,100735.28
2022-07-30T21:29:54.448Z,100736.69
2022-07-30T21:32:56.537Z,100735.56
2022-07-30T21:35:59.499Z,100736.91
2022-07-30T21:39:02.488Z,100734.66
2022-07-30T21:42:05.445Z,100731.63
2022-07-30T21:45:08.373Z,100728.88
2022-07-30T21:48:10.948Z,100713.13
2022-07-30T21:51:15.752Z,100723.38
2022-07-30T21:54:28.643Z,100721.50
2022-07-30T21:57:40.020Z,100704.13
2022-07-30T22:00:48.389Z,100692.88
2022-07-30T22:04:03.413Z,100701.69
2022-07-30T22:07:09.842Z,100699.78
2022-07-30T22:10:13.910Z,100702.53
2022-07-30T22:13:24.471Z,100702.53
2022-07-30T22:16:31.925Z,100703.09
2022-07-30T22:19:34.042Z,100705.84
2022-07-30T22:22:37.570Z,100702.00
2022-07-30T22:25:44.011Z,100696.75
2022-07-30T22:28:47.069Z,100689.59
2022-07-30T22:31:54.713Z,100685.72
2022-07-30T22:34:57.486Z,100686.53
2022-07-30T22:37:59.925Z,100687.09
2022-07-30T22:41:02.037Z,100697.28
2022-07-30T22:44:04.398Z,100710.19
2022-07-30T22:47:18.813Z,100703.88
2022-07-30T22:50:23.876Z,100709.38
2022-07-30T22:54:02.701Z,100709.91
2022-07-30T22:56:50.586Z,100724.44
2022-07-30T22:59:58.449Z,100708.94
2022-07-30T23:03:02.605Z,100727.94
2022-07-30T23:06:04.608Z,100732.09
2022-07-30T23:09:08.519Z,100761.28
2022-07-30T23:12:12.369Z,100762.38
2022-07-30T23:15:17.854Z,100759.78
2022-07-30T23:18:20.038Z,100767.00
2022-07-30T23:21:25.056Z,100772.81
2022-07-30T23:24:27.062Z,100782.88
2022-07-30T23:27:29.316Z,100786.41
2022-07-30T23:30:32.048Z,100790.19
2022-07-30T23:33:36.286Z,100763.78
2022-07-30T23:36:38.398Z,100754.75
2022-07-30T23:39:40.533Z,100762.72
2022-07-30T23:42:42.532Z,100766.56
2022-07-30T23:45:44.722Z,100750.06
2022-07-30T23:48:46.920Z,100749.81
2022-07-30T23:51:49.475Z,100734.72
2022-07-30T23:54:51.509Z,100741.91
2022-07-30T23:57:53.513Z,100743.53
